createdAt,value
2018-04-17T00:00:19.251Z,15.53
2018-04-17T00:02:45.530Z,15.30
2018-04-17T00:05:11.775Z,16.07
2018-04-17T00:07:38.015Z,15.43
2018-04-17T00:10:04.323Z,15.83
2018-04-17T00:12:30.587Z,17.30
2018-04-17T00:14:56.830Z,14.77
2018-04-17T00:17:23.098Z,14.87
2018-04-17T00:19:49.335Z,14.90
2018-04-17T00:22:15.570Z,16.47
2018-04-17T00:24:41.836Z,16.07
2018-04-17T00:27:08.096Z,17.03
2018-04-17T00:29:34.342Z,16.13
2018-04-17T00:32:00.634Z,15.47
2018-04-17T00:34:26.873Z,15.27
2018-04-17T00:36:53.123Z,15.23
2018-04-17T00:39:19.402Z,14.50
2018-04-17T00:41:45.667Z,14.63
2018-04-17T00:44:11.911Z,17.87
2018-04-17T00:46:38.171Z,15.30
2018-04-17T00:49:04.450Z,15.87
2018-04-17T00:51:30.691Z,14.33
2018-04-17T00:53:59.927Z,16.80
2018-04-17T00:56:26.168Z,16.27
2018-04-17T00:58:52.434Z,17.03
2018-04-17T01:01:18.766Z,18.10
2018-04-17T01:03:45.016Z,18.17
2018-04-17T01:06:11.267Z,15.93
2018-04-17T01:08:37.537Z,15.07
2018-04-17T01:11:03.790Z,15.73
2018-04-17T01:13:30.074Z,17.43
2018-04-17T01:15:56.384Z,18.90
2018-04-17T01:18:22.636Z,19.07
2018-04-17T01:20:48.908Z,19.97
2018-04-17T01:23:15.188Z,16.80
2018-04-17T01:25:41.440Z,15.67
2018-04-17T01:28:07.683Z,16.17
2018-04-17T01:30:33.983Z,16.53
2018-04-17T01:33:00.227Z,15.47
2018-04-17T01:35:26.517Z,16.90
2018-04-17T01:37:52.791Z,18.13
2018-04-17T01:40:19.047Z,16.73
2018-04-17T01:42:45.296Z,16.33
2018-04-17T01:45:11.599Z,17.40
2018-04-17T01:47:37.888Z,17.70
2018-04-17T01:50:04.139Z,17.70
2018-04-17T01:52:30.420Z,17.33
2018-04-17T01:54:56.695Z,16.47
2018-04-17T01:57:22.940Z,17.57
2018-04-17T01:59:49.203Z,20.63
2018-04-17T02:02:15.480Z,20.63
2018-04-17T02:04:41.751Z,20.50
2018-04-17T02:07:08.042Z,18.37
2018-04-17T02:09:34.282Z,17.43
2018-04-17T02:12:00.543Z,17.27
2018-04-17T02:14:26.802Z,17.63
2018-04-17T02:16:53.051Z,19.10
2018-04-17T02:19:19.323Z,16.97
2018-04-17T02:21:45.564Z,17.13
2018-04-17T02:24:11.799Z,20.70
2018-04-17T02:26:38.083Z,17.37
2018-04-17T02:29:04.327Z,18.80
2018-04-17T02:31:30.603Z,19.33
2018-04-17T02:33:56.860Z,19.00
2018-04-17T02:36:23.107Z,19.00
2018-04-17T02:38:49.371Z,20.63
2018-04-17T02:41:15.643Z,20.47
2018-04-17T02:43:41.924Z,18.73
2018-04-17T02:46:08.219Z,19.37
2018-04-17T02:48:34.464Z,21.67
2018-04-17T02:51:00.738Z,23.67
2018-04-17T02:53:27.007Z,22.17
2018-04-17T02:55:53.283Z,20.07
2018-04-17T02:58:19.537Z,19.40
2018-04-17T03:00:45.804Z,18.83
2018-04-17T03:03:12.066Z,19.77
2018-04-17T03:05:38.342Z,18.93
2018-04-17T03:08:04.642Z,23.33
2018-04-17T03:10:30.890Z,19.30
2018-04-17T03:12:57.160Z,21.17
2018-04-17T03:15:23.427Z,20.17
2018-04-17T03:17:49.706Z,21.23
2018-04-17T03:20:16.031Z,19.03
2018-04-17T03:22:42.284Z,18.87
2018-04-17T03:25:08.531Z,18.37
2018-04-17T03:27:34.807Z,20.17
2018-04-17T03:30:01.062Z,18.73
2018-04-17T03:32:27.352Z,20.37
2018-04-17T03:34:53.599Z,18.57
2018-04-17T03:37:19.834Z,18.20
2018-04-17T03:39:46.119Z,18.10
2018-04-17T03:42:12.383Z,17.97
2018-04-17T03:44:38.683Z,18.27
2018-04-17T03:47:04.922Z,18.60
2018-04-17T03:49:31.190Z,19.60
2018-04-17T03:51:57.467Z,19.40
2018-04-17T03:54:23.731Z,19.90
2018-04-17T03:56:50.008Z,20.17
2018-04-17T03:59:16.272Z,19.03
2018-04-17T04:01:42.530Z,22.90
2018-04-17T04:04:08.784Z,20.40
2018-04-17T04:06:35.044Z,19.30
2018-04-17T04:09:01.323Z,19.30
2018-04-17T04:11:27.568Z,19.67
2018-04-17T04:13:53.806Z,20.03
2018-04-17T04:16:32.231Z,20.63
2018-04-17T04:19:10.767Z,21.63
2018-04-17T04:21:49.468Z,20.93
2018-04-17T04:24:28.075Z,20.60
2018-04-17T04:26:54.383Z,21.00
2018-04-17T04:29:20.618Z,21.33
2018-04-17T04:31:46.899Z,23.83
2018-04-17T04:34:13.199Z,26.47
2018-04-17T04:36:39.433Z,24.97
2018-04-17T04:39:05.727Z,25.03
2018-04-17T04:41:31.967Z,29.00
2018-04-17T04:43:58.238Z,25.83
2018-04-17T04:46:24.480Z,27.03
2018-04-17T04:48:50.747Z,26.97
2018-04-17T04:51:17.025Z,25.90
2018-04-17T04:53:43.257Z,25.83
2018-04-17T04:56:09.538Z,26.43
2018-04-17T04:58:35.798Z,28.10
2018-04-17T05:01:02.029Z,27.57
2018-04-17T05:03:28.287Z,29.63
2018-04-17T05:05:54.574Z,29.27
2018-04-17T05:08:20.838Z,28.73
2018-04-17T05:10:47.096Z,29.20
2018-04-17T05:13:13.338Z,28.03
2018-04-17T05:15:39.604Z,28.80
2018-04-17T05:18:05.831Z,28.63
2018-04-17T05:20:32.121Z,27.80
2018-04-17T05:22:58.359Z,29.73
2018-04-17T05:25:24.599Z,29.20
2018-04-17T05:27:50.907Z,28.87
2018-04-17T05:30:17.147Z,30.77
2018-04-17T05:32:43.391Z,30.07
2018-04-17T05:35:09.659Z,29.47
2018-04-17T05:37:35.903Z,31.03
2018-04-17T05:40:02.180Z,30.30
2018-04-17T05:42:28.495Z,30.00
2018-04-17T05:44:54.764Z,30.57
2018-04-17T05:47:21.067Z,34.20
2018-04-17T05:49:47.295Z,29.30
2018-04-17T05:52:13.531Z,32.07
2018-04-17T05:54:39.799Z,32.97
2018-04-17T05:57:06.051Z,29.60
2018-04-17T05:59:32.319Z,30.60
2018-04-17T06:01:58.542Z,30.10
2018-04-17T06:04:24.811Z,27.53
2018-04-17T06:06:51.079Z,27.40
2018-04-17T06:09:17.325Z,31.07
2018-04-17T06:11:43.587Z,29.07
2018-04-17T06:14:09.847Z,28.43
2018-04-17T06:16:36.088Z,28.43
2018-04-17T06:19:02.380Z,29.37
2018-04-17T06:21:28.603Z,29.00
2018-04-17T06:23:54.878Z,28.30
2018-04-17T06:26:21.134Z,29.97
2018-04-17T06:28:47.362Z,30.17
2018-04-17T06:31:13.651Z,29.00
2018-04-17T06:33:39.920Z,27.93
2018-04-17T06:36:06.206Z,30.50
2018-04-17T06:38:32.447Z,30.07
2018-04-17T06:40:58.702Z,28.83
2018-04-17T06:43:24.979Z,28.57
2018-04-17T06:45:51.246Z,27.07
2018-04-17T06:48:17.515Z,28.17
2018-04-17T06:50:43.767Z,29.00
2018-04-17T06:53:10.002Z,28.23
2018-04-17T06:55:36.275Z,29.70
2018-04-17T06:58:02.592Z,30.30
2018-04-17T07:00:28.892Z,29.27
2018-04-17T07:02:55.118Z,30.93
2018-04-17T07:05:21.428Z,30.43
2018-04-17T07:07:47.663Z,30.53
2018-04-17T07:10:13.903Z,30.33
2018-04-17T07:12:40.199Z,31.80
2018-04-17T07:15:06.450Z,32.50
2018-04-17T07:17:32.705Z,36.83
2018-04-17T07:19:58.976Z,32.60
2018-04-17T07:22:25.210Z,34.33
2018-04-17T07:24:51.486Z,34.97
2018-04-17T07:27:17.747Z,36.53
2018-04-17T07:29:43.990Z,36.33
2018-04-17T07:32:10.260Z,34.23
2018-04-17T07:34:36.656Z,33.37
2018-04-17T07:37:02.827Z,35.03
2018-04-17T07:39:29.091Z,38.30
2018-04-17T07:41:55.367Z,39.57
2018-04-17T07:44:21.630Z,40.07
2018-04-17T07:47:00.182Z,36.17
2018-04-17T07:49:26.448Z,38.97
2018-04-17T07:51:52.710Z,39.03
2018-04-17T07:54:18.984Z,40.37
2018-04-17T07:56:45.214Z,40.17
2018-04-17T07:59:11.463Z,40.27
2018-04-17T08:01:37.723Z,39.07
2018-04-17T08:04:03.973Z,39.53
2018-04-17T08:06:30.227Z,42.47
2018-04-17T08:08:56.471Z,42.03
2018-04-17T08:11:22.707Z,41.17
2018-04-17T08:13:48.979Z,40.17
2018-04-17T08:16:15.215Z,38.93
2018-04-17T08:18:41.482Z,37.60
2018-04-17T08:21:07.718Z,38.33
2018-04-17T08:23:33.958Z,39.37
2018-04-17T08:26:00.215Z,38.00
2018-04-17T08:28:26.459Z,39.23
2018-04-17T08:30:52.722Z,37.60
2018-04-17T08:33:18.970Z,38.07
2018-04-17T08:35:45.204Z,36.63
2018-04-17T08:38:12.418Z,36.60
2018-04-17T08:40:38.688Z,35.27
2018-04-17T08:43:04.998Z,35.17
2018-04-17T08:45:31.258Z,33.27
2018-04-17T08:47:57.507Z,31.73
2018-04-17T08:50:23.785Z,32.57
2018-04-17T08:52:50.015Z,32.20
2018-04-17T08:55:16.279Z,31.07
2018-04-17T08:57:42.511Z,29.50
2018-04-17T09:00:08.815Z,28.93
2018-04-17T09:02:35.082Z,27.50
2018-04-17T09:05:01.347Z,26.93
2018-04-17T09:07:27.619Z,30.30
2018-04-17T09:09:53.871Z,30.53
2018-04-17T09:12:20.160Z,29.27
2018-04-17T09:14:46.423Z,32.50
2018-04-17T09:17:12.707Z,35.10
2018-04-17T09:19:38.933Z,34.40
2018-04-17T09:22:05.211Z,34.30
2018-04-17T09:24:31.454Z,33.63
2018-04-17T09:26:57.700Z,36.10
2018-04-17T09:29:23.995Z,37.17
2018-04-17T09:31:50.239Z,33.10
2018-04-17T09:34:16.489Z,32.70
2018-04-17T09:36:42.795Z,32.00
2018-04-17T09:39:09.039Z,32.77
2018-04-17T09:41:35.366Z,33.40
2018-04-17T09:44:01.623Z,33.77
2018-04-17T09:46:27.875Z,34.83
2018-04-17T09:48:54.132Z,34.70
2018-04-17T09:51:20.378Z,34.93
2018-04-17T09:53:46.659Z,34.80
2018-04-17T09:56:12.950Z,34.80
2018-04-17T09:58:39.195Z,36.53
2018-04-17T10:01:11.700Z,35.40
2018-04-17T10:03:37.982Z,34.57
2018-04-17T10:06:04.238Z,34.47
2018-04-17T10:08:30.515Z,35.20
2018-04-17T10:10:56.759Z,33.73
2018-04-17T10:13:23.038Z,33.27
2018-04-17T10:15:49.315Z,33.50
2018-04-17T10:18:15.616Z,34.10
2018-04-17T10:20:41.865Z,34.63
2018-04-17T10:23:08.116Z,34.60
2018-04-17T10:25:34.378Z,35.77
2018-04-17T10:28:00.619Z,42.47
2018-04-17T10:30:26.899Z,39.97
2018-04-17T10:32:53.154Z,39.60
2018-04-17T10:35:19.439Z,42.33
2018-04-17T10:37:45.712Z,39.60
2018-04-17T10:40:11.991Z,36.47
2018-04-17T10:42:38.267Z,37.83
2018-04-17T10:45:04.548Z,35.40
2018-04-17T10:47:30.811Z,36.80
2018-04-17T10:49:57.103Z,37.90
2018-04-17T10:52:23.365Z,36.00
2018-04-17T10:54:49.651Z,35.92
2018-04-17T10:57:15.891Z,37.95
2018-04-17T10:59:42.163Z,37.45
2018-04-17T11:02:08.435Z,36.72
2018-04-17T11:04:34.671Z,39.17
2018-04-17T11:07:00.967Z,41.28
2018-04-17T11:09:27.207Z,37.83
2018-04-17T11:11:53.452Z,39.72
2018-04-17T11:14:19.727Z,37.10
2018-04-17T11:16:45.974Z,37.95
2018-04-17T11:19:12.296Z,38.47
2018-04-17T11:21:38.543Z,36.92
2018-04-17T11:24:04.792Z,35.45
2018-04-17T11:26:31.059Z,38.78
2018-04-17T11:28:57.299Z,38.67
2018-04-17T11:31:23.607Z,37.78
2018-04-17T11:33:49.871Z,37.78
2018-04-17T11:36:16.144Z,39.65
2018-04-17T11:38:42.414Z,37.30
2018-04-17T11:41:08.663Z,38.53
2018-04-17T11:43:34.947Z,39.70
2018-04-17T11:46:01.224Z,37.80
2018-04-17T11:48:27.476Z,37.28
2018-04-17T11:50:53.756Z,36.35
2018-04-17T11:53:19.999Z,35.88
2018-04-17T11:55:46.279Z,36.97
2018-04-17T11:58:12.555Z,35.10
2018-04-17T12:00:38.826Z,31.40
2018-04-17T12:03:05.131Z,32.55
2018-04-17T12:05:31.422Z,34.78
2018-04-17T12:07:57.705Z,35.20
2018-04-17T12:10:23.989Z,36.05
2018-04-17T12:12:50.290Z,37.00
2018-04-17T12:15:16.559Z,35.38
2018-04-17T12:17:42.818Z,34.38
2018-04-17T12:20:09.101Z,34.60
2018-04-17T12:22:35.354Z,33.30
2018-04-17T12:25:01.619Z,34.75
2018-04-17T12:27:27.888Z,33.75
2018-04-17T12:29:54.155Z,35.03
2018-04-17T12:32:20.460Z,34.78
2018-04-17T12:34:46.699Z,34.20
2018-04-17T12:37:12.950Z,32.55
2018-04-17T12:39:39.223Z,30.27
2018-04-17T12:42:05.466Z,28.12
2018-04-17T12:44:31.747Z,29.70
2018-04-17T12:46:58.025Z,31.60
2018-04-17T12:49:24.314Z,31.77
2018-04-17T12:51:50.607Z,29.52
2018-04-17T12:54:16.847Z,28.50
2018-04-17T12:56:43.133Z,29.87
2018-04-17T12:59:09.383Z,29.90
2018-04-17T13:01:35.623Z,30.67
2018-04-17T13:04:01.909Z,29.58
2018-04-17T13:06:28.167Z,29.25
2018-04-17T13:08:54.447Z,29.40
2018-04-17T13:11:20.679Z,26.12
2018-04-17T13:13:46.943Z,27.42
2018-04-17T13:16:13.213Z,27.42
2018-04-17T13:18:39.464Z,25.60
2018-04-17T13:21:05.726Z,26.12
2018-04-17T13:23:31.984Z,24.52
2018-04-17T13:25:58.242Z,26.95
2018-04-17T13:28:24.550Z,28.42
2018-04-17T13:30:50.810Z,27.70
2018-04-17T13:33:17.084Z,25.08
2018-04-17T13:35:43.332Z,27.17
2018-04-17T13:38:09.580Z,25.83
2018-04-17T13:40:35.894Z,24.12
2018-04-17T13:43:02.188Z,24.65
2018-04-17T13:45:28.445Z,26.20
2018-04-17T13:47:54.706Z,23.40
2018-04-17T13:50:20.967Z,23.35
2018-04-17T13:52:47.223Z,24.05
2018-04-17T13:55:13.485Z,23.95
2018-04-17T13:57:39.715Z,23.80
2018-04-17T14:00:05.991Z,22.92
2018-04-17T14:02:32.235Z,23.55
2018-04-17T14:04:58.496Z,23.70
2018-04-17T14:07:24.765Z,24.20
2018-04-17T14:09:51.026Z,24.10
2018-04-17T14:12:17.310Z,25.42
2018-04-17T14:14:43.559Z,25.00
2018-04-17T14:17:09.805Z,25.65
2018-04-17T14:19:36.104Z,27.35
2018-04-17T14:22:02.351Z,26.52
2018-04-17T14:24:28.631Z,26.20
2018-04-17T14:26:54.919Z,24.58
2018-04-17T14:29:21.174Z,21.25
2018-04-17T14:31:47.439Z,22.58
2018-04-17T14:34:13.704Z,18.87
2018-04-17T14:36:39.992Z,16.73
2018-04-17T14:39:06.246Z,18.48
2018-04-17T14:41:32.486Z,20.60
2018-04-17T14:43:58.754Z,19.70
2018-04-17T14:46:25.031Z,20.33
2018-04-17T14:48:51.299Z,18.90
2018-04-17T14:51:17.530Z,21.77
2018-04-17T14:53:43.766Z,25.23
2018-04-17T14:56:10.031Z,25.17
2018-04-17T14:58:36.275Z,24.45
2018-04-17T15:01:02.547Z,24.05
2018-04-17T15:03:28.798Z,23.35
2018-04-17T15:05:55.088Z,22.92
2018-04-17T15:08:21.399Z,23.30
2018-04-17T15:10:47.647Z,22.55
2018-04-17T15:13:13.919Z,24.17
2018-04-17T15:15:40.171Z,24.42
2018-04-17T15:18:06.407Z,23.23
2018-04-17T15:20:32.691Z,22.30
2018-04-17T15:22:58.961Z,22.73
2018-04-17T15:25:25.259Z,21.83
2018-04-17T15:27:51.506Z,32.28
2018-04-17T15:30:17.756Z,27.30
2018-04-17T15:32:44.075Z,24.85
2018-04-17T15:35:10.371Z,22.45
2018-04-17T15:37:36.663Z,22.60
2018-04-17T15:40:02.963Z,22.37
2018-04-17T15:42:30.040Z,22.70
2018-04-17T15:44:56.339Z,20.73
2018-04-17T15:47:22.593Z,21.10
2018-04-17T15:49:48.867Z,21.85
2018-04-17T15:52:15.103Z,22.02
2018-04-17T15:54:41.343Z,20.37
2018-04-17T15:57:07.601Z,21.02
2018-04-17T15:59:33.899Z,21.37
2018-04-17T16:02:00.166Z,20.00
2018-04-17T16:04:26.411Z,19.60
2018-04-17T16:06:52.697Z,19.98
2018-04-17T16:09:18.988Z,20.75
2018-04-17T16:11:45.223Z,19.50
2018-04-17T16:14:12.081Z,18.83
2018-04-17T16:16:38.371Z,27.20
2018-04-17T16:19:04.627Z,20.00
2018-04-17T16:21:30.966Z,19.50
2018-04-17T16:23:57.205Z,19.27
2018-04-17T16:26:23.500Z,18.80
2018-04-17T16:28:49.751Z,17.30
2018-04-17T16:31:16.000Z,16.97
2018-04-17T16:33:42.275Z,16.67
2018-04-17T16:36:08.552Z,17.10
2018-04-17T16:38:34.827Z,16.80
2018-04-17T16:41:01.120Z,17.33
2018-04-17T16:43:27.351Z,18.13
2018-04-17T16:45:53.619Z,17.23
2018-04-17T16:48:19.875Z,16.63
2018-04-17T16:50:46.150Z,16.90
2018-04-17T16:53:12.393Z,16.50
2018-04-17T16:55:38.658Z,17.50
2018-04-17T16:58:04.919Z,17.60
2018-04-17T17:00:31.171Z,16.60
2018-04-17T17:02:57.445Z,18.70
2018-04-17T17:05:23.726Z,16.67
2018-04-17T17:07:49.940Z,17.63
2018-04-17T17:10:16.227Z,16.53
2018-04-17T17:12:42.460Z,17.27
2018-04-17T17:15:08.751Z,17.23
2018-04-17T17:17:34.989Z,17.20
2018-04-17T17:20:01.267Z,18.93
2018-04-17T17:22:27.519Z,18.67
2018-04-17T17:24:53.759Z,17.77
2018-04-17T17:27:20.051Z,20.10
2018-04-17T17:29:46.307Z,16.50
2018-04-17T17:32:12.547Z,17.53
2018-04-17T17:34:38.810Z,16.93
2018-04-17T17:37:05.060Z,17.00
2018-04-17T17:39:31.291Z,15.80
2018-04-17T17:41:57.547Z,17.33
2018-04-17T17:44:23.782Z,19.47
2018-04-17T17:46:50.060Z,16.73
2018-04-17T17:49:16.354Z,15.87
2018-04-17T17:51:42.639Z,16.47
2018-04-17T17:54:08.879Z,16.87
2018-04-17T17:56:35.184Z,17.40
2018-04-17T17:59:01.460Z,17.50
2018-04-17T18:01:27.804Z,18.00
2018-04-17T18:03:54.071Z,15.87
2018-04-17T18:06:20.312Z,16.93
2018-04-17T18:08:46.584Z,16.40
2018-04-17T18:11:12.855Z,17.30
2018-04-17T18:13:39.124Z,17.60
2018-04-17T18:16:05.360Z,17.47
2018-04-17T18:18:31.630Z,17.60
2018-04-17T18:20:57.897Z,16.97
2018-04-17T18:23:24.137Z,16.37
2018-04-17T18:25:50.418Z,14.43
2018-04-17T18:28:16.656Z,14.10
2018-04-17T18:30:42.911Z,14.50
2018-04-17T18:33:09.194Z,14.87
2018-04-17T18:35:35.448Z,14.77
2018-04-17T18:38:01.752Z,14.67
2018-04-17T18:40:28.001Z,14.43
2018-04-17T18:42:54.231Z,14.60
2018-04-17T18:45:20.511Z,14.93
2018-04-17T18:47:46.761Z,15.10
2018-04-17T18:50:13.051Z,15.53
2018-04-17T18:52:39.314Z,16.83
2018-04-17T18:55:05.551Z,16.67
2018-04-17T18:57:31.825Z,16.93
2018-04-17T18:59:58.059Z,16.57
2018-04-17T19:02:24.329Z,17.30
2018-04-17T19:04:50.624Z,18.10
2018-04-17T19:07:16.900Z,18.10
2018-04-17T19:09:43.155Z,17.67
2018-04-17T19:12:09.397Z,16.90
2018-04-17T19:14:35.691Z,17.10
2018-04-17T19:17:01.954Z,18.17
2018-04-17T19:19:28.199Z,16.07
2018-04-17T19:21:54.459Z,17.70
2018-04-17T19:24:20.703Z,19.30
2018-04-17T19:26:46.966Z,18.67
2018-04-17T19:29:13.215Z,18.57
2018-04-17T19:31:39.455Z,17.50
2018-04-17T19:34:05.751Z,18.13
2018-04-17T19:36:31.980Z,18.17
2018-04-17T19:38:58.256Z,18.70
2018-04-17T19:41:24.511Z,18.97
2018-04-17T19:43:50.756Z,19.53
2018-04-17T19:46:17.013Z,20.27
2018-04-17T19:48:43.247Z,19.90
2018-04-17T19:51:09.520Z,20.73
2018-04-17T19:53:36.945Z,18.67
2018-04-17T19:56:03.227Z,18.87
2018-04-17T19:58:29.495Z,18.50
2018-04-17T20:00:55.735Z,18.90
2018-04-17T20:03:21.999Z,20.03
2018-04-17T20:05:48.235Z,18.40
2018-04-17T20:08:14.495Z,18.37
2018-04-17T20:10:40.770Z,19.43
2018-04-17T20:13:07.007Z,18.23
2018-04-17T20:15:33.278Z,19.10
2018-04-17T20:17:59.516Z,19.60
2018-04-17T20:20:25.759Z,19.30
2018-04-17T20:22:52.040Z,18.57
2018-04-17T20:25:18.279Z,18.80
2018-04-17T20:27:44.534Z,19.07
2018-04-17T20:30:10.779Z,17.90
2018-04-17T20:32:37.006Z,18.70
2018-04-17T20:35:03.284Z,18.97
2018-04-17T20:37:29.523Z,19.43
2018-04-17T20:39:55.831Z,18.03
2018-04-17T20:42:22.297Z,19.23
2018-04-17T20:44:48.558Z,19.90
2018-04-17T20:47:14.835Z,19.43
2018-04-17T20:49:41.063Z,19.27
2018-04-17T20:52:07.355Z,19.50
2018-04-17T20:54:33.618Z,20.30
2018-04-17T20:56:59.898Z,19.40
2018-04-17T20:59:26.155Z,18.97
2018-04-17T21:01:52.399Z,18.20
2018-04-17T21:04:18.663Z,19.37
2018-04-17T21:06:44.895Z,19.40
2018-04-17T21:09:11.150Z,18.80
2018-04-17T21:11:37.439Z,18.80
2018-04-17T21:14:03.702Z,19.57
2018-04-17T21:16:29.992Z,18.97
2018-04-17T21:18:56.258Z,19.30
2018-04-17T21:21:22.524Z,18.83
2018-04-17T21:23:48.786Z,18.40
2018-04-17T21:26:15.027Z,17.97
2018-04-17T21:28:41.263Z,18.93
2018-04-17T21:31:07.532Z,18.33
2018-04-17T21:33:33.767Z,18.07
2018-04-17T21:36:00.075Z,18.73
2018-04-17T21:38:26.315Z,19.27
2018-04-17T21:40:52.551Z,19.10
2018-04-17T21:43:19.655Z,19.17
2018-04-17T21:45:45.920Z,18.63
2018-04-17T21:48:12.155Z,17.80
2018-04-17T21:50:38.421Z,19.23
2018-04-17T21:53:04.655Z,18.80
2018-04-17T21:55:30.886Z,19.63
2018-04-17T21:57:57.926Z,18.63
2018-04-17T22:00:24.172Z,19.27
2018-04-17T22:02:50.450Z,21.00
2018-04-17T22:05:16.683Z,19.43
2018-04-17T22:07:42.927Z,20.20
2018-04-17T22:10:09.205Z,20.73
2018-04-17T22:12:35.426Z,19.30
2018-04-17T22:15:01.690Z,20.93
2018-04-17T22:17:27.915Z,22.20
2018-04-17T22:19:54.191Z,21.63
2018-04-17T22:22:20.488Z,21.37
2018-04-17T22:24:46.775Z,19.23
2018-04-17T22:27:13.055Z,20.23
2018-04-17T22:29:39.299Z,20.27
2018-04-17T22:32:05.535Z,19.43
2018-04-17T22:34:31.789Z,21.03
2018-04-17T22:36:58.058Z,20.83
2018-04-17T22:39:24.362Z,21.57
2018-04-17T22:41:50.631Z,20.80
2018-04-17T22:44:16.899Z,20.67
2018-04-17T22:46:43.199Z,19.87
2018-04-17T22:49:09.459Z,21.47
2018-04-17T22:51:35.762Z,21.60
2018-04-17T22:54:02.036Z,22.47
2018-04-17T22:56:28.323Z,21.53
2018-04-17T22:58:54.643Z,20.80
2018-04-17T23:01:20.903Z,21.03
2018-04-17T23:03:47.156Z,21.90
2018-04-17T23:06:13.403Z,21.27
2018-04-17T23:08:39.656Z,20.13
2018-04-17T23:11:05.922Z,19.97
2018-04-17T23:13:32.162Z,20.63
2018-04-17T23:15:58.454Z,20.63
2018-04-17T23:18:24.707Z,20.17
2018-04-17T23:20:50.942Z,21.33
2018-04-17T23:23:17.213Z,21.23
2018-04-17T23:25:43.454Z,21.63
2018-04-17T23:28:09.719Z,20.20
2018-04-17T23:30:35.965Z,20.93
2018-04-17T23:33:02.227Z,21.33
2018-04-17T23:35:28.487Z,20.50
2018-04-17T23:37:54.731Z,19.53
2018-04-17T23:40:21.038Z,19.63
2018-04-17T23:42:47.283Z,23.87
2018-04-17T23:45:13.542Z,18.73
2018-04-17T23:47:39.808Z,19.30
2018-04-17T23:50:06.056Z,20.17
2018-04-17T23:52:32.331Z,19.10
2018-04-17T23:54:58.575Z,21.33
2018-04-17T23:57:24.815Z,20.33
2018-04-17T23:59:51.084Z,20.07
